< < Back
Terminal Aerodrome Forecast


Current Version              Previous Versions:   1  2  3  4  5  6  7  8  9  

Terminal Aerodrome Forecast

152
FTUS42 KILM 201700
TAFFLO
TAF
KFLO 201729Z 2018/2118 27006KT P6SM SCT050 BKN250
     FM201900 28006KT P6SM VCTS SCT035CB BKN060
     FM210000 VRB03KT P6SM BKN250
     FM210900 00000KT 1SM BR SCT250
     FM211300 VRB04KT P6SM SCT250=



Latest METAR

063
SAUS70 KWBC 201800 RRT
MTRFLO
METAR KFLO 201753Z VRB03KT 10SM FEW043 FEW050 32/21 A2998 RMK AO2 SLP149
T03220206 10328 20233 58005


USA.gov is the U.S. government's official web portal to all federal, state and local government web resources and services.